Starksboro, Vermont
Current Conditions -  °F | °C
As of 3:54 PM on Saturday 22 Nov 2014 (Local Time) from KBTV Reporting Station
Broken Clouds Broken Clouds  
Wind Chill: 25°   Ceiling: 4200
Heat Index: 36°   Visibility: 10mi
Dew Point:   Wind: 21mph
Humidity: 33%   Direction: 190°S
Pressure: 29.95"   Gusts: 33mph
Location:  44.23°N, 73.06°W
Report Text: KBTV 222054Z 19018G29KT 10SM BKN042 02/M13 A2995 RMK AO2 PK WND 20029/2015 SLP147 T00221128 56039
Loading
Personal Weather Stations






























Interactive Weather Map New forecast layout! Learn more

10-Day Weather Forecast

Advertisements
Track Severe Weather on mobile